createdAt,value
2023-10-12T00:02:01.053Z,10.55
2023-10-12T00:04:44.677Z,11.25
2023-10-12T00:07:26.522Z,12.25
2023-10-12T00:10:04.042Z,11.70
2023-10-12T00:12:30.606Z,10.53
2023-10-12T00:14:57.259Z,11.25
2023-10-12T00:17:28.095Z,11.70
2023-10-12T00:19:54.587Z,10.32
2023-10-12T00:22:22.743Z,11.88
2023-10-12T00:24:51.030Z,10.83
2023-10-12T00:27:18.390Z,11.95
2023-10-12T00:29:49.626Z,12.48
2023-10-12T00:32:16.084Z,12.00
2023-10-12T00:34:55.312Z,11.43
2023-10-12T00:37:21.765Z,11.77
2023-10-12T00:39:54.037Z,11.43
2023-10-12T00:42:26.489Z,12.93
2023-10-12T00:44:55.894Z,12.40
2023-10-12T00:47:41.982Z,12.93
2023-10-12T00:50:12.940Z,11.70
2023-10-12T00:52:55.002Z,12.60
2023-10-12T00:55:36.320Z,12.32
2023-10-12T00:58:06.797Z,12.23
2023-10-12T01:00:47.991Z,12.15
2023-10-12T01:03:40.781Z,12.03
2023-10-12T01:06:10.234Z,11.25
2023-10-12T01:08:44.419Z,11.77
2023-10-12T01:11:19.235Z,11.57
2023-10-12T01:13:56.088Z,10.95
2023-10-12T01:16:24.504Z,11.93
2023-10-12T01:18:56.831Z,9.70
2023-10-12T01:21:23.868Z,7.97
2023-10-12T01:23:53.568Z,5.90
2023-10-12T01:26:21.074Z,5.30
2023-10-12T01:28:50.571Z,6.30
2023-10-12T01:31:28.491Z,5.90
2023-10-12T01:33:59.277Z,5.28
2023-10-12T01:36:29.292Z,6.13
2023-10-12T01:39:12.519Z,6.60
2023-10-12T01:41:43.002Z,5.70
2023-10-12T01:44:13.347Z,6.03
2023-10-12T01:46:42.906Z,6.00
2023-10-12T01:49:12.513Z,5.80
2023-10-12T01:51:44.743Z,6.40
2023-10-12T01:54:13.504Z,6.40
2023-10-12T01:56:40.379Z,7.13
2023-10-12T01:59:08.565Z,6.88
2023-10-12T02:01:35.872Z,7.78
2023-10-12T02:04:05.877Z,4.22
2023-10-12T02:06:32.535Z,2.90
2023-10-12T02:09:11.295Z,1.75
2023-10-12T02:11:46.938Z,2.00
2023-10-12T02:14:14.727Z,1.25
2023-10-12T02:16:54.398Z,1.38
2023-10-12T02:19:32.622Z,1.13
2023-10-12T02:22:01.850Z,0.90
2023-10-12T02:24:28.661Z,0.80
2023-10-12T02:26:55.979Z,1.02
2023-10-12T02:29:22.513Z,0.90
2023-10-12T02:31:51.356Z,1.00
2023-10-12T02:34:31.028Z,0.63
2023-10-12T02:37:09.673Z,1.00
2023-10-12T02:39:39.032Z,0.80
2023-10-12T02:42:17.839Z,0.60
2023-10-12T02:44:48.916Z,0.80
2023-10-12T02:47:24.612Z,0.70
2023-10-12T02:50:16.211Z,0.75
2023-10-12T02:52:45.876Z,0.80
2023-10-12T02:55:24.106Z,0.70
2023-10-12T02:57:55.818Z,0.70
2023-10-12T03:00:33.059Z,0.80
2023-10-12T03:03:09.237Z,1.10
2023-10-12T03:05:49.491Z,0.90
2023-10-12T03:08:18.563Z,1.08
2023-10-12T03:11:09.171Z,0.70
2023-10-12T03:13:37.904Z,0.85
2023-10-12T03:16:13.386Z,0.60
2023-10-12T03:18:40.658Z,0.80
2023-10-12T03:21:12.828Z,0.77
2023-10-12T03:23:40.830Z,0.83
2023-10-12T03:26:19.938Z,0.77
2023-10-12T03:28:47.592Z,1.30
2023-10-12T03:31:27.380Z,1.10
2023-10-12T03:33:57.660Z,1.30
2023-10-12T03:36:38.037Z,0.93
2023-10-12T03:39:13.741Z,1.10
2023-10-12T03:42:01.874Z,0.80
2023-10-12T03:44:46.522Z,0.80
2023-10-12T03:47:22.038Z,1.08
2023-10-12T03:49:55.821Z,1.17
2023-10-12T03:52:40.065Z,1.10
2023-10-12T03:55:09.690Z,1.02
2023-10-12T03:57:36.454Z,1.15
2023-10-12T04:00:07.300Z,1.05
2023-10-12T04:02:43.332Z,1.17
2023-10-12T04:05:35.750Z,0.90
2023-10-12T04:08:06.775Z,1.33
2023-10-12T04:10:49.276Z,1.08
2023-10-12T04:13:29.057Z,0.80
2023-10-12T04:16:08.713Z,1.20
2023-10-12T04:18:42.538Z,1.27
2023-10-12T04:21:16.528Z,1.30
2023-10-12T04:23:45.858Z,1.40
2023-10-12T04:26:15.170Z,1.00
2023-10-12T04:28:56.541Z,1.30
2023-10-12T04:31:32.942Z,1.73
2023-10-12T04:34:09.856Z,1.50
2023-10-12T04:36:43.790Z,1.70
2023-10-12T04:39:28.681Z,1.20
2023-10-12T04:42:02.679Z,1.10
2023-10-12T04:44:32.078Z,0.90
2023-10-12T04:47:10.981Z,0.75
2023-10-12T04:49:39.295Z,1.02
2023-10-12T04:52:14.751Z,0.90
2023-10-12T04:54:57.821Z,0.70
2023-10-12T04:57:34.811Z,0.60
2023-10-12T05:00:25.181Z,0.65
2023-10-12T05:02:52.014Z,1.08
2023-10-12T05:05:24.964Z,1.00
2023-10-12T05:07:57.649Z,1.13
2023-10-12T05:10:33.261Z,0.95
2023-10-12T05:13:06.963Z,1.10
2023-10-12T05:15:41.928Z,1.33
2023-10-12T05:18:12.464Z,0.95
2023-10-12T05:20:42.479Z,1.00
2023-10-12T05:23:10.008Z,0.70
2023-10-12T05:25:49.466Z,0.75
2023-10-12T05:28:19.605Z,0.68
2023-10-12T05:31:05.083Z,0.57
2023-10-12T05:33:31.636Z,0.40
2023-10-12T05:36:00.398Z,0.70
2023-10-12T05:38:37.082Z,0.50
2023-10-12T05:41:11.784Z,0.70
2023-10-12T05:43:41.554Z,0.70
2023-10-12T05:46:15.186Z,0.67
2023-10-12T05:48:46.889Z,0.80
2023-10-12T05:51:15.663Z,0.90
2023-10-12T05:53:42.377Z,1.00
2023-10-12T05:56:08.915Z,1.02
2023-10-12T05:58:35.711Z,1.00
2023-10-12T06:01:09.506Z,1.20
2023-10-12T06:03:41.046Z,1.60
2023-10-12T06:06:10.832Z,1.73
2023-10-12T06:08:38.957Z,1.83
2023-10-12T06:11:08.773Z,1.43
2023-10-12T06:13:45.505Z,1.23
2023-10-12T06:16:22.709Z,1.20
2023-10-12T06:18:50.787Z,0.80
2023-10-12T06:21:20.614Z,0.80
2023-10-12T06:23:51.642Z,0.47
2023-10-12T06:26:30.256Z,0.80
2023-10-12T06:28:58.366Z,0.90
2023-10-12T06:31:27.202Z,1.08
2023-10-12T06:33:56.452Z,1.15
2023-10-12T06:36:44.711Z,1.43
2023-10-12T06:39:31.508Z,1.00
2023-10-12T06:41:57.926Z,1.33
2023-10-12T06:44:27.416Z,1.25
2023-10-12T06:47:23.314Z,1.02
2023-10-12T06:49:52.771Z,1.23
2023-10-12T06:52:20.429Z,1.42
2023-10-12T06:54:56.075Z,1.27
2023-10-12T06:57:28.307Z,1.20
2023-10-12T07:00:00.703Z,1.20
2023-10-12T07:02:33.330Z,1.40
2023-10-12T07:05:05.250Z,1.02
2023-10-12T07:07:42.868Z,1.13
2023-10-12T07:10:10.818Z,1.00
2023-10-12T07:12:47.633Z,1.30
2023-10-12T07:15:21.474Z,1.40
2023-10-12T07:17:50.900Z,1.70
2023-10-12T07:20:34.218Z,1.40
2023-10-12T07:23:13.136Z,1.33
2023-10-12T07:25:39.600Z,1.58
2023-10-12T07:28:06.826Z,1.30
2023-10-12T07:30:37.627Z,1.48
2023-10-12T07:33:08.848Z,1.20
2023-10-12T07:35:37.293Z,1.48
2023-10-12T07:38:26.632Z,1.00
2023-10-12T07:40:56.003Z,1.30
2023-10-12T07:43:24.668Z,1.30
2023-10-12T07:45:52.686Z,1.83
2023-10-12T07:48:40.712Z,1.40
2023-10-12T07:51:17.536Z,1.77
2023-10-12T07:53:51.110Z,1.10
2023-10-12T07:56:18.421Z,1.40
2023-10-12T07:58:48.320Z,1.48
2023-10-12T08:01:26.868Z,1.23
2023-10-12T08:03:54.444Z,1.52
2023-10-12T08:06:53.347Z,1.17
2023-10-12T08:09:34.836Z,1.48
2023-10-12T08:12:21.344Z,1.50
2023-10-12T08:14:47.849Z,1.20
2023-10-12T08:17:27.360Z,1.30
2023-10-12T08:20:16.795Z,1.50
2023-10-12T08:22:43.352Z,1.73
2023-10-12T08:25:09.900Z,1.35
2023-10-12T08:28:07.047Z,1.30
2023-10-12T08:30:52.584Z,1.58
2023-10-12T08:33:39.082Z,1.60
2023-10-12T08:36:17.390Z,1.98
2023-10-12T08:39:09.553Z,1.75
2023-10-12T08:41:54.991Z,1.30
2023-10-12T08:44:22.004Z,1.40
2023-10-12T08:46:57.720Z,1.27
2023-10-12T08:49:44.168Z,1.40
2023-10-12T08:52:21.908Z,1.85
2023-10-12T08:54:54.324Z,1.30
2023-10-12T08:57:44.486Z,1.80
2023-10-12T09:00:25.552Z,1.13
2023-10-12T09:03:07.584Z,1.88
2023-10-12T09:05:35.767Z,1.15
2023-10-12T09:08:14.824Z,1.20
2023-10-12T09:10:52.682Z,1.08
2023-10-12T09:13:20.527Z,1.03
2023-10-12T09:15:49.588Z,1.30
2023-10-12T09:18:20.168Z,1.85
2023-10-12T09:21:02.467Z,1.40
2023-10-12T09:23:30.439Z,1.20
2023-10-12T09:26:19.471Z,1.30
2023-10-12T09:28:47.404Z,1.60
2023-10-12T09:31:15.866Z,1.83
2023-10-12T09:33:46.621Z,1.45
2023-10-12T09:36:13.162Z,1.63
2023-10-12T09:38:39.761Z,1.63
2023-10-12T09:41:14.072Z,1.50
2023-10-12T09:43:43.131Z,1.75
2023-10-12T09:46:11.141Z,1.48
2023-10-12T09:48:40.444Z,2.05
2023-10-12T09:51:16.565Z,1.60
2023-10-12T09:53:54.668Z,1.65
2023-10-12T09:56:29.419Z,1.75
2023-10-12T09:59:14.671Z,1.85
2023-10-12T10:01:41.302Z,1.30
2023-10-12T10:04:26.451Z,1.37
2023-10-12T10:07:04.987Z,1.27
2023-10-12T10:09:31.515Z,1.60
2023-10-12T10:11:59.336Z,1.33
2023-10-12T10:14:35.254Z,1.27
2023-10-12T10:17:02.490Z,1.10
2023-10-12T10:19:32.304Z,1.20
2023-10-12T10:22:18.324Z,1.27
2023-10-12T10:24:47.716Z,1.33
2023-10-12T10:27:15.678Z,1.42
2023-10-12T10:29:57.101Z,1.10
2023-10-12T10:32:31.260Z,1.30
2023-10-12T10:35:05.822Z,1.23
2023-10-12T10:38:02.498Z,1.30
2023-10-12T10:40:49.029Z,1.55
2023-10-12T10:43:16.840Z,1.43
2023-10-12T10:45:57.590Z,1.38
2023-10-12T10:48:51.657Z,1.20
2023-10-12T10:51:26.020Z,1.83
2023-10-12T10:53:58.344Z,1.75
2023-10-12T10:56:38.638Z,2.00
2023-10-12T10:59:07.487Z,2.17
2023-10-12T11:01:34.547Z,2.38
2023-10-12T11:04:03.121Z,2.17
2023-10-12T11:06:29.763Z,2.03
2023-10-12T11:09:08.869Z,1.93
2023-10-12T11:11:52.481Z,1.77
2023-10-12T11:14:19.750Z,2.10
2023-10-12T11:16:49.734Z,1.60
2023-10-12T11:19:21.077Z,2.00
2023-10-12T11:21:52.929Z,2.40
2023-10-12T11:24:25.090Z,2.30
2023-10-12T11:26:53.611Z,2.45
2023-10-12T11:29:20.401Z,2.53
2023-10-12T11:32:11.389Z,2.35
2023-10-12T11:34:46.122Z,2.50
2023-10-12T11:37:15.124Z,2.60
2023-10-12T11:39:43.490Z,3.05
2023-10-12T11:42:13.874Z,3.20
2023-10-12T11:44:45.050Z,3.20
2023-10-12T11:47:13.131Z,3.20
2023-10-12T11:49:50.728Z,3.35
2023-10-12T11:52:31.673Z,3.22
2023-10-12T11:55:07.571Z,3.45
2023-10-12T11:57:37.036Z,3.97
2023-10-12T12:00:30.128Z,3.43
2023-10-12T12:03:00.906Z,3.90
2023-10-12T12:05:34.091Z,4.10
2023-10-12T12:08:07.265Z,3.65
2023-10-12T12:10:46.515Z,3.75
2023-10-12T12:13:16.598Z,4.17
2023-10-12T12:15:44.722Z,3.95
2023-10-12T12:18:21.034Z,3.70
2023-10-12T12:20:49.352Z,3.95
2023-10-12T12:23:16.202Z,4.25
2023-10-12T12:25:43.364Z,4.10
2023-10-12T12:28:22.740Z,4.68
2023-10-12T12:31:00.014Z,3.70
2023-10-12T12:33:30.362Z,4.47
2023-10-12T12:36:08.449Z,4.20
2023-10-12T12:38:37.750Z,4.00
2023-10-12T12:41:06.963Z,4.20
2023-10-12T12:43:37.742Z,4.38
2023-10-12T12:46:06.147Z,4.45
2023-10-12T12:48:34.543Z,4.10
2023-10-12T12:51:01.573Z,4.60
2023-10-12T12:53:29.833Z,5.18
2023-10-12T12:55:58.143Z,4.97
2023-10-12T12:58:25.299Z,4.78
2023-10-12T13:00:53.849Z,4.85
2023-10-12T13:03:21.995Z,4.90
2023-10-12T13:05:48.600Z,4.32
2023-10-12T13:08:18.238Z,6.10
2023-10-12T13:10:45.532Z,5.07
2023-10-12T13:13:13.437Z,5.30
2023-10-12T13:15:43.712Z,5.00
2023-10-12T13:18:15.751Z,5.03
2023-10-12T13:20:50.025Z,5.68
2023-10-12T13:23:22.961Z,5.65
2023-10-12T13:25:49.722Z,6.60
2023-10-12T13:28:17.993Z,6.50
2023-10-12T13:30:45.048Z,6.35
2023-10-12T13:33:14.828Z,6.22
2023-10-12T13:35:41.713Z,6.95
2023-10-12T13:38:13.063Z,6.60
2023-10-12T13:40:48.107Z,7.57
2023-10-12T13:43:23.367Z,7.00
2023-10-12T13:45:51.162Z,7.13
2023-10-12T13:48:23.382Z,6.95
2023-10-12T13:51:09.536Z,6.38
2023-10-12T13:53:39.562Z,6.50
2023-10-12T13:56:10.925Z,6.90
2023-10-12T13:58:38.640Z,7.65
2023-10-12T14:01:06.615Z,8.35
2023-10-12T14:03:36.519Z,9.82
2023-10-12T14:06:07.860Z,10.77
2023-10-12T14:08:36.591Z,10.07
2023-10-12T14:11:05.110Z,9.05
2023-10-12T14:13:32.739Z,9.20
2023-10-12T14:16:00.230Z,8.68
2023-10-12T14:18:32.093Z,8.03
2023-10-12T14:20:58.979Z,8.57
2023-10-12T14:23:30.727Z,8.27
2023-10-12T14:25:58.575Z,8.10
2023-10-12T14:28:32.666Z,8.18
2023-10-12T14:30:59.443Z,8.10
2023-10-12T14:33:26.734Z,7.85
2023-10-12T14:35:53.307Z,7.65
2023-10-12T14:38:19.972Z,7.70
2023-10-12T14:40:46.740Z,7.57
2023-10-12T14:43:16.952Z,6.93
2023-10-12T14:45:50.874Z,6.85
2023-10-12T14:48:17.532Z,7.30
2023-10-12T14:50:50.180Z,5.93
2023-10-12T14:53:17.983Z,6.60
2023-10-12T14:55:45.028Z,6.10
2023-10-12T14:58:15.059Z,6.50
2023-10-12T15:00:45.243Z,6.40
2023-10-12T15:03:25.026Z,6.53
2023-10-12T15:06:01.244Z,6.75
2023-10-12T15:08:27.803Z,6.23
2023-10-12T15:10:58.214Z,6.00
2023-10-12T15:13:26.866Z,5.70
2023-10-12T15:15:54.699Z,6.70
2023-10-12T15:18:26.032Z,5.97
2023-10-12T15:20:56.550Z,5.63
2023-10-12T15:23:29.643Z,5.78
2023-10-12T15:26:07.287Z,6.05
2023-10-12T15:28:37.215Z,5.85
2023-10-12T15:31:07.709Z,5.82
2023-10-12T15:33:35.588Z,6.10
2023-10-12T15:36:02.378Z,6.38
2023-10-12T15:38:34.910Z,5.55
2023-10-12T15:41:02.151Z,6.10
2023-10-12T15:43:29.971Z,6.80
2023-10-12T15:45:57.024Z,7.07
2023-10-12T15:48:27.907Z,7.65
2023-10-12T15:50:55.626Z,8.00
2023-10-12T15:53:25.696Z,7.38
2023-10-12T15:55:52.831Z,8.40
2023-10-12T15:58:20.085Z,8.20
2023-10-12T16:00:46.697Z,9.25
2023-10-12T16:03:15.539Z,8.95
2023-10-12T16:05:43.774Z,9.60
2023-10-12T16:08:15.813Z,9.50
2023-10-12T16:10:47.693Z,10.13
2023-10-12T16:13:14.269Z,10.13
2023-10-12T16:15:40.772Z,9.75
2023-10-12T16:18:09.625Z,10.18
2023-10-12T16:20:36.515Z,10.07
2023-10-12T16:23:03.657Z,10.47
2023-10-12T16:25:31.921Z,10.95
2023-10-12T16:27:59.387Z,11.18
2023-10-12T16:30:28.348Z,11.43
2023-10-12T16:32:55.854Z,11.55
2023-10-12T16:35:24.621Z,11.60
2023-10-12T16:37:57.161Z,12.13
2023-10-12T16:40:26.634Z,12.32
2023-10-12T16:42:55.343Z,12.57
2023-10-12T16:45:23.909Z,13.10
2023-10-12T16:47:51.981Z,13.30
2023-10-12T16:50:19.622Z,14.13
2023-10-12T16:52:50.244Z,13.23
2023-10-12T16:55:18.981Z,12.63
2023-10-12T16:57:46.693Z,13.07
2023-10-12T17:00:17.713Z,13.13
2023-10-12T17:02:45.694Z,13.35
2023-10-12T17:05:23.775Z,13.60
2023-10-12T17:07:50.200Z,13.27
2023-10-12T17:10:35.621Z,13.07
2023-10-12T17:13:02.152Z,14.07
2023-10-12T17:15:28.854Z,13.73
2023-10-12T17:17:55.720Z,13.55
2023-10-12T17:20:24.590Z,13.38
2023-10-12T17:22:52.417Z,13.85
2023-10-12T17:25:19.175Z,13.50
2023-10-12T17:27:46.442Z,13.07
2023-10-12T17:30:13.263Z,14.05
2023-10-12T17:32:42.162Z,13.73
2023-10-12T17:35:13.686Z,14.55
2023-10-12T17:37:40.765Z,15.20
2023-10-12T17:40:09.560Z,15.38
2023-10-12T17:42:36.233Z,14.60
2023-10-12T17:45:10.211Z,13.02
2023-10-12T17:47:40.306Z,15.05
2023-10-12T17:50:16.963Z,13.10
2023-10-12T17:52:46.809Z,14.65
2023-10-12T17:55:17.457Z,13.88
2023-10-12T17:57:44.945Z,14.00
2023-10-12T18:00:12.368Z,14.68
2023-10-12T18:02:43.246Z,14.00
2023-10-12T18:05:13.009Z,13.93
2023-10-12T18:07:41.516Z,14.55
2023-10-12T18:10:08.707Z,15.15
2023-10-12T18:12:35.405Z,16.95
2023-10-12T18:15:01.883Z,15.33
2023-10-12T18:17:28.509Z,14.73
2023-10-12T18:19:55.322Z,15.25
2023-10-12T18:22:21.971Z,15.35
2023-10-12T18:24:48.474Z,15.60
2023-10-12T18:27:14.921Z,15.63
2023-10-12T18:29:42.926Z,15.93
2023-10-12T18:32:09.735Z,16.73
2023-10-12T18:34:36.422Z,15.80
2023-10-12T18:37:12.465Z,16.25
2023-10-12T18:39:41.586Z,16.63
2023-10-12T18:42:08.160Z,16.15
2023-10-12T18:44:37.289Z,16.13
2023-10-12T18:47:06.062Z,16.25
2023-10-12T18:49:32.725Z,15.23
2023-10-12T18:51:59.597Z,15.80
2023-10-12T18:54:26.437Z,16.67
2023-10-12T18:56:53.010Z,17.17
2023-10-12T18:59:19.928Z,15.85
2023-10-12T19:01:46.803Z,16.23
2023-10-12T19:04:13.506Z,15.67
2023-10-12T19:06:40.006Z,16.23
2023-10-12T19:09:06.842Z,15.65
2023-10-12T19:11:33.403Z,16.30
2023-10-12T19:13:59.901Z,18.40
2023-10-12T19:16:26.515Z,16.03
2023-10-12T19:18:53.132Z,15.57
2023-10-12T19:21:20.849Z,16.45
2023-10-12T19:23:47.939Z,16.92
2023-10-12T19:26:15.802Z,17.95
2023-10-12T19:28:44.990Z,16.50
2023-10-12T19:31:13.652Z,15.85
2023-10-12T19:33:42.692Z,16.92
2023-10-12T19:36:11.053Z,15.77
2023-10-12T19:38:40.228Z,16.58
2023-10-12T19:41:08.565Z,15.00
2023-10-12T19:43:37.971Z,16.35
2023-10-12T19:46:10.666Z,16.90
2023-10-12T19:48:38.330Z,15.30
2023-10-12T19:51:14.940Z,16.38
2023-10-12T19:53:49.175Z,15.60
2023-10-12T19:56:22.841Z,17.30
2023-10-12T19:58:50.434Z,16.75
2023-10-12T20:01:22.072Z,16.73
2023-10-12T20:03:50.732Z,17.08
2023-10-12T20:06:18.616Z,16.53
2023-10-12T20:08:54.611Z,18.27
2023-10-12T20:11:21.149Z,17.85
2023-10-12T20:13:50.001Z,16.83
2023-10-12T20:16:25.257Z,17.60
2023-10-12T20:18:52.025Z,17.73
2023-10-12T20:21:18.610Z,15.57
2023-10-12T20:23:46.433Z,14.52
2023-10-12T20:26:14.983Z,14.93
2023-10-12T20:28:41.989Z,14.10
2023-10-12T20:31:12.035Z,13.33
2023-10-12T20:33:40.772Z,13.80
2023-10-12T20:36:09.002Z,12.80
2023-10-12T20:38:36.116Z,13.10
2023-10-12T20:41:05.219Z,12.13
2023-10-12T20:43:35.280Z,11.03
2023-10-12T20:46:09.136Z,10.13
2023-10-12T20:48:39.423Z,9.50
2023-10-12T20:51:06.506Z,8.68
2023-10-12T20:53:37.058Z,8.77
2023-10-12T20:56:09.502Z,7.37
2023-10-12T20:58:44.430Z,7.40
2023-10-12T21:01:28.235Z,7.85
2023-10-12T21:03:55.333Z,7.30
2023-10-12T21:06:29.665Z,6.97
2023-10-12T21:09:13.254Z,7.43
2023-10-12T21:11:46.686Z,7.45
2023-10-12T21:14:27.455Z,6.38
2023-10-12T21:16:54.822Z,5.00
2023-10-12T21:19:22.059Z,5.05
2023-10-12T21:21:55.889Z,6.57
2023-10-12T21:24:23.244Z,6.80
2023-10-12T21:26:52.713Z,5.80
2023-10-12T21:29:19.892Z,6.43
2023-10-12T21:32:04.426Z,6.10
2023-10-12T21:34:34.803Z,5.93
2023-10-12T21:37:07.509Z,5.93
2023-10-12T21:39:37.015Z,6.15
2023-10-12T21:42:04.643Z,5.18
2023-10-12T21:44:31.192Z,6.22
2023-10-12T21:47:03.722Z,4.97
2023-10-12T21:49:33.785Z,5.03
2023-10-12T21:52:00.813Z,5.88
2023-10-12T21:54:27.482Z,6.95
2023-10-12T21:56:56.776Z,6.50
2023-10-12T21:59:23.880Z,7.10
2023-10-12T22:02:03.973Z,6.72
2023-10-12T22:04:38.043Z,7.28
2023-10-12T22:07:07.946Z,8.10
2023-10-12T22:09:44.679Z,7.53
2023-10-12T22:12:15.518Z,8.13
2023-10-12T22:15:01.678Z,8.38
2023-10-12T22:17:29.910Z,8.63
2023-10-12T22:19:57.812Z,8.57
2023-10-12T22:22:24.877Z,8.68
2023-10-12T22:24:54.246Z,8.90
2023-10-12T22:27:22.416Z,9.05
2023-10-12T22:29:49.035Z,9.90
2023-10-12T22:32:15.857Z,8.77
2023-10-12T22:34:42.409Z,8.48
2023-10-12T22:37:12.242Z,8.80
2023-10-12T22:39:39.541Z,8.05
2023-10-12T22:42:06.295Z,8.15
2023-10-12T22:44:36.224Z,8.63
2023-10-12T22:47:04.196Z,8.27
2023-10-12T22:49:33.730Z,7.80
2023-10-12T22:52:01.173Z,7.88
2023-10-12T22:54:34.621Z,7.93
2023-10-12T22:57:03.611Z,7.60
2023-10-12T22:59:32.884Z,7.35
2023-10-12T23:01:59.405Z,7.83
2023-10-12T23:04:26.393Z,7.38
2023-10-12T23:06:53.414Z,7.40
2023-10-12T23:09:20.403Z,7.30
2023-10-12T23:11:50.186Z,7.45
2023-10-12T23:14:24.284Z,6.40
2023-10-12T23:16:52.227Z,6.82
2023-10-12T23:19:37.029Z,7.18
2023-10-12T23:22:17.784Z,6.68
2023-10-12T23:24:45.063Z,6.35
2023-10-12T23:27:14.137Z,6.13
2023-10-12T23:29:40.922Z,7.13
2023-10-12T23:32:10.092Z,6.85
2023-10-12T23:34:45.677Z,7.75
2023-10-12T23:37:13.522Z,7.47
2023-10-12T23:39:56.258Z,8.30
2023-10-12T23:42:23.827Z,7.45
2023-10-12T23:44:50.738Z,8.15
2023-10-12T23:47:18.650Z,7.88
2023-10-12T23:49:46.490Z,8.57
2023-10-12T23:52:23.376Z,8.23
2023-10-12T23:54:51.074Z,7.72
2023-10-12T23:57:17.622Z,9.88
2023-10-12T23:59:45.166Z,8.40
